Time;durP1;ratioP1;P1;durP2;ratioP2;P2;SDS_P1;SDS_P2;PMS_P1;PMS_P2;Temp;Humidity;BMP_temperature;BMP_pressure;BME280_temperature;BME280_humidity;BME280_pressure;Samples;Min_cycle;Max_cycle;Signal;HPM_P1;HPM_P2
2024/03/18 00:02:30;;;;;;;32.90;17.17;;;12.90;99.90;;;;;;7292413;19;20186;-80
2024/03/18 00:04:56;;;;;;;27.43;15.93;;;12.80;99.90;;;;;;7289368;19;20195;-79
2024/03/18 00:07:23;;;;;;;26.23;16.67;;;12.80;99.90;;;;;;7285646;19;20196;-78
2024/03/18 00:09:49;;;;;;;23.90;16.13;;;12.80;99.90;;;;;;7285744;19;20207;-78
2024/03/18 00:12:15;;;;;;;25.10;15.33;;;12.80;99.90;;;;;;7285658;19;20190;-79
2024/03/18 00:14:43;;;;;;;27.93;16.00;;;12.80;99.90;;;;;;7285542;19;20202;-78
2024/03/18 00:17:13;;;;;;;24.87;14.80;;;12.80;99.90;;;;;;7286106;19;20255;-79
2024/03/18 00:19:39;;;;;;;23.00;14.20;;;12.80;99.90;;;;;;7287258;19;20602;-79
2024/03/18 00:22:07;;;;;;;20.70;14.27;;;12.70;99.90;;;;;;7286147;19;20816;-78
2024/03/18 00:24:33;;;;;;;23.23;14.47;;;12.70;99.90;;;;;;7286822;19;20206;-78
2024/03/18 00:27:00;;;;;;;23.80;14.80;;;12.80;99.90;;;;;;7293534;19;20256;-78
2024/03/18 00:29:27;;;;;;;25.97;16.20;;;12.80;99.90;;;;;;7309837;19;20190;-78
2024/03/18 00:31:53;;;;;;;25.50;16.57;;;12.70;99.90;;;;;;7288477;19;20201;-78
2024/03/18 00:34:18;;;;;;;27.80;18.37;;;12.70;99.90;;;;;;7286956;19;20207;-78
2024/03/18 00:36:46;;;;;;;29.67;18.60;;;12.70;99.90;;;;;;7284878;19;20196;-78
2024/03/18 00:39:12;;;;;;;28.70;18.83;;;12.80;99.90;;;;;;7286935;19;20193;-78
2024/03/18 00:41:46;;;;;;;27.43;17.70;;;12.70;99.90;;;;;;7287091;19;20210;-77
2024/03/18 00:44:17;;;;;;;28.40;18.67;;;12.60;99.90;;;;;;7284362;19;20193;-78
2024/03/18 00:46:44;;;;;;;33.30;19.23;;;12.60;99.90;;;;;;7287040;19;20210;-78
2024/03/18 00:49:10;;;;;;;28.80;19.17;;;12.60;99.90;;;;;;7286589;19;20215;-80
2024/03/18 00:51:37;;;;;;;29.20;18.97;;;12.70;99.90;;;;;;7285915;19;20283;-77
2024/03/18 00:54:04;;;;;;;31.93;19.70;;;12.70;99.90;;;;;;7283595;19;20184;-78
2024/03/18 00:56:31;;;;;;;30.63;19.87;;;12.70;99.90;;;;;;7290082;19;20204;-78
2024/03/18 00:58:57;;;;;;;34.37;20.83;;;12.80;99.90;;;;;;7307558;19;20186;-78
2024/03/18 01:01:22;;;;;;;32.83;19.73;;;12.80;99.90;;;;;;7285117;19;20729;-78
2024/03/18 01:03:48;;;;;;;34.10;20.87;;;12.90;99.90;;;;;;7283819;19;20328;-78
2024/03/18 01:06:14;;;;;;;35.63;20.90;;;12.90;99.90;;;;;;7285452;19;20182;-78
2024/03/18 01:08:41;;;;;;;33.70;20.40;;;12.80;99.90;;;;;;7284199;19;20203;-77
2024/03/18 01:11:07;;;;;;;31.60;19.07;;;12.70;99.90;;;;;;7281133;19;20233;-77
2024/03/18 01:13:34;;;;;;;30.80;19.27;;;12.70;99.90;;;;;;7282529;19;20195;-77
2024/03/18 01:16:00;;;;;;;28.40;18.27;;;12.70;99.90;;;;;;7284511;19;20186;-78
2024/03/18 01:18:27;;;;;;;28.10;18.63;;;12.60;99.90;;;;;;7303418;19;20185;-78
2024/03/18 01:20:54;;;;;;;33.83;19.27;;;12.60;99.90;;;;;;7279220;19;21022;-78
2024/03/18 01:23:20;;;;;;;30.67;19.00;;;12.60;99.90;;;;;;7282500;19;20662;-77
2024/03/18 01:25:47;;;;;;;34.20;20.80;;;12.60;99.90;;;;;;7284797;19;20193;-78
2024/03/18 01:28:13;;;;;;;38.50;21.93;;;12.60;99.90;;;;;;7281788;19;20649;-77
2024/03/18 01:30:41;;;;;;;38.23;21.17;;;12.60;99.90;;;;;;7281364;19;20208;-79
2024/03/18 01:33:07;;;;;;;39.37;21.87;;;12.70;99.90;;;;;;7280339;19;20185;-78
2024/03/18 01:35:33;;;;;;;41.33;21.93;;;12.70;99.90;;;;;;7285541;19;20178;-78
2024/03/18 01:38:00;;;;;;;39.13;22.00;;;12.60;99.90;;;;;;7299306;19;20304;-78
2024/03/18 01:40:26;;;;;;;34.33;20.77;;;12.60;99.90;;;;;;7303866;19;20189;-78
2024/03/18 01:42:52;;;;;;;39.60;21.97;;;12.70;99.90;;;;;;7285335;19;20185;-78
2024/03/18 01:45:23;;;;;;;36.20;21.13;;;12.70;99.90;;;;;;7283939;19;20529;-79
2024/03/18 01:47:51;;;;;;;37.50;20.10;;;12.70;99.90;;;;;;7284397;19;20200;-78
2024/03/18 01:50:17;;;;;;;37.87;20.73;;;12.70;99.90;;;;;;7284256;19;20201;-78
2024/03/18 01:52:44;;;;;;;40.30;21.20;;;12.70;99.90;;;;;;7284353;19;20225;-79
2024/03/18 01:55:11;;;;;;;40.77;21.47;;;12.80;99.90;;;;;;7285014;19;20187;-78
2024/03/18 01:57:38;;;;;;;41.73;22.23;;;12.90;99.90;;;;;;7282706;19;20668;-78
2024/03/18 02:00:13;;;;;;;47.33;24.87;;;12.90;99.90;;;;;;7280651;19;20225;-78
2024/03/18 02:02:39;;;;;;;49.23;24.13;;;13.00;99.90;;;;;;7284066;19;20198;-79
2024/03/18 02:05:06;;;;;;;47.93;24.13;;;13.00;99.90;;;;;;7283077;19;20187;-78
2024/03/18 02:07:33;;;;;;;49.67;24.57;;;13.00;99.90;;;;;;7282822;19;20191;-78
2024/03/18 02:09:59;;;;;;;45.33;23.10;;;12.90;99.90;;;;;;7304370;19;20190;-78
2024/03/18 02:12:25;;;;;;;42.93;23.00;;;12.70;99.90;;;;;;7295546;19;20288;-78
2024/03/18 02:14:52;;;;;;;43.80;23.53;;;12.80;99.90;;;;;;7282551;19;20185;-78
2024/03/18 02:17:20;;;;;;;37.10;21.80;;;12.80;99.90;;;;;;7282453;19;20194;-78
2024/03/18 02:19:47;;;;;;;38.83;21.00;;;12.80;99.90;;;;;;7282742;19;20852;-78
2024/03/18 02:22:13;;;;;;;36.93;20.73;;;12.80;99.90;;;;;;7285445;19;20202;-78
2024/03/18 02:24:39;;;;;;;40.90;21.57;;;12.80;99.90;;;;;;7283843;19;20199;-78
2024/03/18 02:27:06;;;;;;;36.27;20.50;;;12.90;99.90;;;;;;7280831;19;20204;-78
2024/03/18 02:29:32;;;;;;;36.60;19.73;;;12.90;99.90;;;;;;7282911;19;20192;-78
2024/03/18 02:31:58;;;;;;;40.40;20.70;;;12.90;99.90;;;;;;7304459;19;20199;-80
2024/03/18 02:34:27;;;;;;;35.53;20.00;;;13.00;99.90;;;;;;7282657;19;20278;-78
2024/03/18 02:36:54;;;;;;;32.83;19.77;;;12.90;99.90;;;;;;7279649;19;20223;-79
2024/03/18 02:39:23;;;;;;;37.10;20.10;;;12.90;99.90;;;;;;7281185;19;20185;-79
2024/03/18 02:41:51;;;;;;;35.60;19.23;;;13.00;99.90;;;;;;7282821;19;20229;-79
2024/03/18 02:44:17;;;;;;;34.43;19.27;;;13.10;99.90;;;;;;7279216;19;20191;-79
2024/03/18 02:46:44;;;;;;;36.40;20.67;;;13.10;99.90;;;;;;7278623;19;20646;-79
2024/03/18 02:49:10;;;;;;;33.67;19.37;;;13.20;99.90;;;;;;7283231;19;20196;-80
2024/03/18 02:51:36;;;;;;;34.93;19.00;;;13.20;99.90;;;;;;7282582;19;20571;-79
2024/03/18 02:54:02;;;;;;;33.83;19.23;;;13.30;99.90;;;;;;7287120;19;20213;-78
2024/03/18 02:56:28;;;;;;;36.53;19.40;;;13.30;99.90;;;;;;7311002;19;20209;-79
2024/03/18 02:58:55;;;;;;;33.77;18.23;;;13.40;99.90;;;;;;7289897;19;20652;-80
2024/03/18 03:01:24;;;;;;;31.60;18.30;;;13.40;99.90;;;;;;7288452;19;20256;-80
2024/03/18 03:03:57;;;;;;;31.33;18.70;;;13.50;99.90;;;;;;7288362;19;20202;-80
2024/03/18 03:06:23;;;;;;;36.10;19.07;;;13.50;99.90;;;;;;7289307;19;20184;-79
2024/03/18 03:08:49;;;;;;;37.63;19.37;;;13.60;99.90;;;;;;7290663;19;20209;-80
2024/03/18 03:11:15;;;;;;;34.93;19.07;;;13.50;99.90;;;;;;7287343;19;20197;-79
2024/03/18 03:13:43;;;;;;;36.87;20.07;;;13.60;99.90;;;;;;7285609;19;20197;-80
2024/03/18 03:16:13;;;;;;;35.87;19.50;;;13.60;99.90;;;;;;7288262;19;20200;-80
2024/03/18 03:18:39;;;;;;;34.97;19.97;;;13.60;99.90;;;;;;7287715;19;20188;-79
2024/03/18 03:21:05;;;;;;;37.43;21.10;;;13.70;99.90;;;;;;7287299;19;20197;-79
2024/03/18 03:23:36;;;;;;;35.53;19.27;;;13.80;99.90;;;;;;7288421;19;20185;-79
2024/03/18 03:26:02;;;;;;;34.53;19.50;;;13.80;99.90;;;;;;7289212;19;20186;-79
2024/03/18 03:28:28;;;;;;;33.93;20.10;;;13.80;99.90;;;;;;7310552;19;20187;-80
2024/03/18 03:31:05;;;;;;;35.97;20.40;;;13.90;99.90;;;;;;7287450;19;20253;-79
2024/03/18 03:33:35;;;;;;;40.27;20.97;;;14.00;99.90;;;;;;7264112;19;20206;-79
2024/03/18 03:36:02;;;;;;;38.77;21.43;;;13.90;99.90;;;;;;7291335;19;20191;-80
2024/03/18 03:38:28;;;;;;;38.00;21.00;;;13.90;99.90;;;;;;7310161;19;20244;-79
2024/03/18 03:40:54;;;;;;;40.00;21.90;;;13.90;99.90;;;;;;7287104;19;20325;-79
2024/03/18 03:43:21;;;;;;;40.33;22.90;;;13.90;99.90;;;;;;7288914;19;20310;-78
2024/03/18 03:45:59;;;;;;;43.43;22.77;;;14.00;99.90;;;;;;7290873;19;20567;-79
2024/03/18 03:48:26;;;;;;;48.07;23.83;;;13.90;99.90;;;;;;7291230;19;20192;-79
2024/03/18 03:50:53;;;;;;;44.63;24.23;;;14.00;99.90;;;;;;7287057;19;20203;-79
2024/03/18 03:53:19;;;;;;;46.37;24.17;;;14.00;99.90;;;;;;7287951;19;20190;-79
2024/03/18 03:55:46;;;;;;;45.87;23.20;;;14.00;99.90;;;;;;7286640;19;20188;-80
2024/03/18 03:58:12;;;;;;;50.07;25.13;;;14.00;99.90;;;;;;7285974;19;20196;-80
2024/03/18 04:00:45;;;;;;;48.20;24.17;;;14.00;99.90;;;;;;7283999;19;20193;-79
2024/03/18 04:03:15;;;;;;;50.40;24.60;;;14.00;99.90;;;;;;7287746;19;20656;-79
2024/03/18 04:05:41;;;;;;;46.60;24.70;;;14.10;99.90;;;;;;7286913;19;20189;-79
2024/03/18 04:08:07;;;;;;;48.03;25.03;;;14.20;99.90;;;;;;7288279;19;20196;-79
2024/03/18 04:10:33;;;;;;;45.60;24.30;;;14.10;99.90;;;;;;7285893;19;20185;-78
2024/03/18 04:12:59;;;;;;;47.50;23.77;;;14.10;99.90;;;;;;7306358;19;20329;-79
2024/03/18 04:15:25;;;;;;;48.70;24.57;;;14.10;99.90;;;;;;7296685;19;20191;-79
2024/03/18 04:17:52;;;;;;;54.30;25.77;;;14.10;99.90;;;;;;7285221;19;20620;-79
2024/03/18 04:20:23;;;;;;;51.90;25.57;;;14.10;99.90;;;;;;7285243;19;20278;-79
2024/03/18 04:22:51;;;;;;;52.30;26.33;;;14.20;99.90;;;;;;7285898;19;20648;-79
2024/03/18 04:25:19;;;;;;;57.63;27.07;;;14.20;99.90;;;;;;7286991;19;20222;-79
2024/03/18 04:27:52;;;;;;;65.47;27.63;;;14.10;99.90;;;;;;7286201;19;20189;-79
2024/03/18 04:30:19;;;;;;;59.97;28.73;;;14.20;99.90;;;;;;7285403;19;20200;-80
2024/03/18 04:32:47;;;;;;;62.97;28.83;;;14.20;99.90;;;;;;7286684;19;20227;-81
2024/03/18 04:35:14;;;;;;;69.37;30.40;;;14.20;99.90;;;;;;7286232;19;20184;-80
2024/03/18 04:37:46;;;;;;;73.90;29.97;;;14.20;99.90;;;;;;7284312;19;20188;-80
2024/03/18 04:40:16;;;;;;;64.53;29.70;;;14.20;99.90;;;;;;7283548;19;20187;-79
2024/03/18 04:42:43;;;;;;;73.43;30.60;;;14.20;99.90;;;;;;7283805;19;20635;-79
2024/03/18 04:45:09;;;;;;;73.53;30.50;;;14.10;99.90;;;;;;7283128;19;20227;-79
2024/03/18 04:47:52;;;;;;;72.40;30.83;;;14.10;99.90;;;;;;7285640;19;20619;-80
2024/03/18 04:50:20;;;;;;;76.97;30.23;;;14.10;99.90;;;;;;7285191;19;20677;-79
2024/03/18 04:52:46;;;;;;;86.43;32.60;;;14.10;99.90;;;;;;7285714;19;20181;-79
2024/03/18 04:55:12;;;;;;;104.47;33.13;;;14.10;99.90;;;;;;7284896;19;20181;-80
2024/03/18 04:57:39;;;;;;;87.87;33.03;;;14.10;99.90;;;;;;7283575;19;20185;-80
2024/03/18 05:00:14;;;;;;;113.07;33.67;;;14.20;99.90;;;;;;7284093;19;20577;-79
2024/03/18 05:02:43;;;;;;;101.43;32.70;;;14.20;99.90;;;;;;7285265;19;20188;-79
2024/03/18 05:05:11;;;;;;;140.27;33.77;;;14.20;99.90;;;;;;7284828;19;21270;-80
2024/03/18 05:07:37;;;;;;;141.83;31.37;;;14.10;99.90;;;;;;7285515;19;20301;-79
2024/03/18 05:10:04;;;;;;;115.80;30.40;;;14.10;99.90;;;;;;7286347;19;20184;-78
2024/03/18 05:12:30;;;;;;;91.20;26.20;;;14.00;99.90;;;;;;7306839;19;20627;-80
2024/03/18 05:14:57;;;;;;;74.10;25.50;;;14.00;99.90;;;;;;7283514;19;20190;-77
2024/03/18 05:17:26;;;;;;;54.10;22.83;;;13.90;99.90;;;;;;7281341;19;20203;-79
2024/03/18 05:19:52;;;;;;;53.53;22.33;;;13.80;99.90;;;;;;7285431;19;20199;-79
2024/03/18 05:22:19;;;;;;;64.10;22.60;;;13.80;99.90;;;;;;7284720;19;20188;-80
2024/03/18 05:24:45;;;;;;;44.93;20.80;;;13.70;99.90;;;;;;7284493;19;20196;-79
2024/03/18 05:27:15;;;;;;;38.13;19.67;;;13.70;99.90;;;;;;7284818;19;20190;-80
2024/03/18 05:29:41;;;;;;;37.17;19.70;;;13.60;99.90;;;;;;7282482;19;20900;-79
2024/03/18 05:32:15;;;;;;;34.67;19.23;;;13.60;99.90;;;;;;7284002;19;20194;-79
2024/03/18 05:34:42;;;;;;;31.47;18.40;;;13.60;99.90;;;;;;7284763;19;20186;-79
2024/03/18 05:37:09;;;;;;;31.00;18.50;;;13.60;99.90;;;;;;7286115;19;20188;-79
2024/03/18 05:39:36;;;;;;;32.90;19.20;;;13.50;99.90;;;;;;7286472;19;20179;-79
2024/03/18 05:42:03;;;;;;;35.00;19.17;;;13.60;99.90;;;;;;7282976;19;20233;-79
2024/03/18 05:44:28;;;;;;;37.23;20.13;;;13.60;99.90;;;;;;7303059;19;20192;-79
2024/03/18 05:46:54;;;;;;;33.20;19.30;;;13.50;99.90;;;;;;7283215;19;20185;-79
2024/03/18 05:49:20;;;;;;;37.10;20.47;;;13.40;99.90;;;;;;7284827;19;21513;-79
2024/03/18 05:51:48;;;;;;;35.17;19.63;;;13.40;99.90;;;;;;7283938;19;20310;-78
2024/03/18 05:54:17;;;;;;;39.53;19.57;;;13.50;99.90;;;;;;7284206;19;20197;-79
2024/03/18 05:56:43;;;;;;;37.30;19.37;;;13.50;99.90;;;;;;7283998;19;20651;-80
2024/03/18 05:59:12;;;;;;;31.83;18.37;;;13.50;99.90;;;;;;7283213;19;20927;-79
2024/03/18 06:01:41;;;;;;;39.20;19.80;;;13.50;99.90;;;;;;7285081;19;20191;-79
2024/03/18 06:04:10;;;;;;;33.37;18.03;;;13.40;99.90;;;;;;7286227;19;20186;-78
2024/03/18 06:06:36;;;;;;;36.43;19.87;;;13.40;99.90;;;;;;7287297;19;20208;-79
2024/03/18 06:09:04;;;;;;;38.30;20.00;;;13.40;99.90;;;;;;7292058;19;21057;-79
2024/03/18 06:11:30;;;;;;;40.87;20.43;;;13.40;99.90;;;;;;7302239;19;20199;-80
2024/03/18 06:13:56;;;;;;;37.23;19.20;;;13.30;99.90;;;;;;7283753;19;20195;-80
2024/03/18 06:16:22;;;;;;;37.97;18.67;;;13.20;99.90;;;;;;7283609;19;20184;-79
2024/03/18 06:18:51;;;;;;;41.13;19.37;;;13.10;99.90;;;;;;7281707;19;20226;-79
2024/03/18 06:21:17;;;;;;;37.67;19.53;;;13.00;99.90;;;;;;7282728;19;20197;-82
2024/03/18 06:23:50;;;;;;;37.53;18.83;;;12.90;99.90;;;;;;7281560;19;20251;-80
2024/03/18 06:26:17;;;;;;;38.70;18.90;;;12.80;99.90;;;;;;7283158;19;20247;-80
2024/03/18 06:28:43;;;;;;;41.77;20.43;;;12.80;99.90;;;;;;7280286;19;20197;-79
2024/03/18 06:31:10;;;;;;;37.97;18.97;;;12.70;99.90;;;;;;7278656;19;20569;-80
2024/03/18 06:33:36;;;;;;;44.63;20.60;;;12.60;99.90;;;;;;7281254;19;20238;-79
2024/03/18 06:36:08;;;;;;;46.97;21.13;;;12.50;99.90;;;;;;7287703;19;20182;-80
2024/03/18 06:38:35;;;;;;;48.63;21.33;;;12.50;99.90;;;;;;7281411;19;21020;-79
2024/03/18 06:41:01;;;;;;;47.03;21.03;;;12.60;99.90;;;;;;7296830;19;20288;-80
2024/03/18 06:43:27;;;;;;;50.43;22.47;;;12.60;99.90;;;;;;7296530;19;20691;-80
2024/03/18 06:45:53;;;;;;;51.17;21.00;;;12.60;99.90;;;;;;7281413;19;20640;-80
2024/03/18 06:48:18;;;;;;;56.00;22.67;;;12.70;99.90;;;;;;7279704;19;20573;-81
2024/03/18 06:50:44;;;;;;;52.83;21.60;;;13.00;99.90;;;;;;7281942;19;20208;-79
2024/03/18 06:53:10;;;;;;;50.33;21.50;;;13.20;99.90;;;;;;7283611;19;20557;-80
2024/03/18 06:55:36;;;;;;;49.17;20.97;;;13.40;99.90;;;;;;7281400;19;20190;-79
2024/03/18 06:58:03;;;;;;;48.07;21.53;;;13.50;99.90;;;;;;7284811;19;20198;-79
2024/03/18 07:00:29;;;;;;;48.07;22.47;;;13.60;99.90;;;;;;7305989;19;20183;-80
2024/03/18 07:02:55;;;;;;;49.27;21.67;;;14.10;99.90;;;;;;7282208;19;20256;-80
2024/03/18 07:05:22;;;;;;;46.93;20.13;;;14.50;99.90;;;;;;7283246;19;20276;-79
2024/03/18 07:07:48;;;;;;;51.77;20.20;;;14.70;99.90;;;;;;7281354;19;20187;-80
2024/03/18 07:10:15;;;;;;;46.23;20.20;;;14.70;99.90;;;;;;7280791;19;20191;-80
2024/03/18 07:12:42;;;;;;;38.17;18.00;;;14.60;99.90;;;;;;7281640;19;20748;-80
2024/03/18 07:15:11;;;;;;;39.33;16.43;;;14.50;99.90;;;;;;7284661;19;20208;-79
2024/03/18 07:17:37;;;;;;;38.87;16.63;;;14.50;99.90;;;;;;7281399;19;20212;-79
2024/03/18 07:20:06;;;;;;;39.03;15.27;;;14.20;99.90;;;;;;7280918;19;20187;-79
2024/03/18 07:22:36;;;;;;;43.43;16.17;;;14.00;99.90;;;;;;7285020;19;20593;-79
2024/03/18 07:25:03;;;;;;;37.53;15.43;;;14.00;99.90;;;;;;7291094;19;20189;-80
2024/03/18 07:27:29;;;;;;;40.63;15.60;;;14.00;99.90;;;;;;7303365;19;20298;-80
2024/03/18 07:29:57;;;;;;;35.43;14.33;;;13.90;99.90;;;;;;7280601;19;20551;-79
2024/03/18 07:32:24;;;;;;;35.03;13.70;;;13.70;99.90;;;;;;7280644;19;20299;-79
2024/03/18 07:34:51;;;;;;;37.30;14.33;;;13.60;99.90;;;;;;7277413;19;20190;-80
2024/03/18 07:37:17;;;;;;;33.10;13.90;;;13.60;99.90;;;;;;7280613;19;20191;-79
2024/03/18 07:39:43;;;;;;;36.90;13.57;;;13.70;99.90;;;;;;7283609;19;20196;-79
2024/03/18 07:42:11;;;;;;;30.93;13.37;;;13.80;99.90;;;;;;7286447;19;20181;-79
2024/03/18 07:44:41;;;;;;;39.23;13.37;;;13.90;99.90;;;;;;7283903;19;20202;-80
2024/03/18 07:47:07;;;;;;;38.27;12.60;;;14.00;99.90;;;;;;7286257;19;20190;-79
2024/03/18 07:49:35;;;;;;;35.33;13.07;;;14.00;99.90;;;;;;7285326;19;20263;-79
2024/03/18 07:52:01;;;;;;;34.90;12.47;;;14.00;99.90;;;;;;7298532;19;20662;-79
2024/03/18 07:54:30;;;;;;;32.10;12.70;;;14.00;99.90;;;;;;7299998;19;20196;-79
2024/03/18 07:56:56;;;;;;;35.23;11.67;;;14.10;99.90;;;;;;7285649;19;20207;-79
2024/03/18 07:59:22;;;;;;;33.20;12.37;;;14.10;99.90;;;;;;7286641;19;20213;-79
2024/03/18 08:01:49;;;;;;;30.63;13.00;;;14.00;99.90;;;;;;7285618;19;20203;-79
2024/03/18 08:04:15;;;;;;;33.47;12.33;;;13.90;99.90;;;;;;7285690;19;20186;-79
2024/03/18 08:06:46;;;;;;;33.13;12.67;;;13.90;99.90;;;;;;7287519;19;20199;-79
2024/03/18 08:09:16;;;;;;;35.97;12.83;;;13.80;99.90;;;;;;7287363;19;20215;-79
2024/03/18 08:11:42;;;;;;;33.67;13.30;;;13.80;99.90;;;;;;7285032;19;20266;-79
2024/03/18 08:14:09;;;;;;;31.50;13.10;;;14.00;99.90;;;;;;7285676;19;21014;-79
2024/03/18 08:16:35;;;;;;;28.60;12.30;;;13.90;99.90;;;;;;7286865;19;20210;-79
2024/03/18 08:19:03;;;;;;;32.53;12.37;;;14.00;99.90;;;;;;7305902;19;20682;-79
2024/03/18 08:21:29;;;;;;;28.70;12.27;;;14.00;99.90;;;;;;7307601;19;20186;-80
2024/03/18 08:23:55;;;;;;;29.40;12.83;;;14.10;99.90;;;;;;7285971;19;20194;-80
2024/03/18 08:26:21;;;;;;;34.70;12.70;;;13.90;99.90;;;;;;7288019;19;20195;-79
2024/03/18 08:28:47;;;;;;;33.03;12.87;;;13.70;99.90;;;;;;7285219;19;20206;-79
2024/03/18 08:31:12;;;;;;;34.17;13.17;;;13.90;99.90;;;;;;7284841;19;20549;-80
2024/03/18 08:33:39;;;;;;;36.50;13.57;;;13.90;99.90;;;;;;7284888;19;20193;-79
2024/03/18 08:36:05;;;;;;;31.10;12.53;;;13.80;99.90;;;;;;7285896;19;20975;-79
2024/03/18 08:38:31;;;;;;;32.53;13.50;;;14.00;99.90;;;;;;7306971;19;20184;-79
2024/03/18 08:40:57;;;;;;;34.57;12.87;;;14.00;99.90;;;;;;7284919;19;20206;-80
2024/03/18 08:43:23;;;;;;;28.03;12.97;;;14.10;99.90;;;;;;7285487;19;20185;-79
2024/03/18 08:45:52;;;;;;;30.20;12.47;;;14.20;99.90;;;;;;7285652;19;20190;-80
2024/03/18 08:48:18;;;;;;;27.40;12.13;;;14.30;99.90;;;;;;7282515;19;20199;-80
2024/03/18 08:50:45;;;;;;;29.30;12.30;;;14.50;99.90;;;;;;7283385;19;21014;-80
2024/03/18 08:53:14;;;;;;;25.53;11.20;;;14.70;99.90;;;;;;7286046;19;20201;-79
2024/03/18 08:55:40;;;;;;;26.03;10.00;;;15.00;99.90;;;;;;7285271;19;20188;-79
2024/03/18 08:58:06;;;;;;;24.47;10.50;;;15.10;99.90;;;;;;7283044;19;20704;-80
2024/03/18 09:00:33;;;;;;;25.20;10.37;;;15.40;99.90;;;;;;7292050;19;20217;-79
2024/03/18 09:02:59;;;;;;;24.73;10.30;;;15.70;99.90;;;;;;7308044;19;20189;-80
2024/03/18 09:05:25;;;;;;;29.13;11.87;;;15.50;99.90;;;;;;7285447;19;20676;-80
2024/03/18 09:07:51;;;;;;;27.50;11.23;;;15.40;99.90;;;;;;7282191;19;20209;-79
2024/03/18 09:10:17;;;;;;;27.03;11.17;;;15.10;99.90;;;;;;7284520;19;20300;-79
2024/03/18 09:12:43;;;;;;;31.33;12.10;;;15.10;99.90;;;;;;7283901;19;20204;-80
2024/03/18 09:15:10;;;;;;;24.23;11.30;;;15.10;99.90;;;;;;7285372;19;20190;-79
2024/03/18 09:17:36;;;;;;;29.03;10.97;;;15.00;99.90;;;;;;7285075;19;20207;-79
2024/03/18 09:20:04;;;;;;;29.27;11.47;;;15.20;99.90;;;;;;7306012;19;20189;-79
2024/03/18 09:22:30;;;;;;;21.00;10.47;;;15.40;99.90;;;;;;7287309;19;20189;-79
2024/03/18 09:24:56;;;;;;;26.90;9.40;;;15.70;99.90;;;;;;7284339;19;20186;-79
2024/03/18 09:27:22;;;;;;;22.73;9.90;;;15.90;99.90;;;;;;7284298;19;20191;-80
2024/03/18 09:29:49;;;;;;;28.80;11.60;;;16.30;99.90;;;;;;7284916;19;20201;-80
2024/03/18 09:32:15;;;;;;;27.50;10.40;;;16.40;99.90;;;;;;7284419;19;20196;-79
2024/03/18 09:34:42;;;;;;;29.97;12.03;;;16.40;99.90;;;;;;7288229;19;20255;-79
2024/03/18 09:37:08;;;;;;;29.63;11.63;;;16.40;99.90;;;;;;7283106;19;20185;-79
2024/03/18 09:39:34;;;;;;;30.37;10.90;;;16.20;99.90;;;;;;7283218;19;20196;-79
2024/03/18 09:42:00;;;;;;;26.37;11.37;;;16.30;99.90;;;;;;7307314;19;20211;-79
2024/03/18 09:44:26;;;;;;;30.13;11.03;;;16.50;99.90;;;;;;7281622;19;20183;-79
2024/03/18 09:46:52;;;;;;;26.13;10.80;;;16.40;99.90;;;;;;7283665;19;20223;-80
2024/03/18 09:49:22;;;;;;;24.33;10.23;;;16.50;99.90;;;;;;7285077;19;20198;-80
2024/03/18 09:51:49;;;;;;;24.30;9.87;;;16.70;99.90;;;;;;7284566;19;20217;-80
2024/03/18 09:54:17;;;;;;;19.67;8.60;;;16.80;99.90;;;;;;7282217;19;20186;-79
2024/03/18 09:57:03;;;;;;;21.60;8.83;;;17.10;99.90;;;;;;7283689;19;20202;-80
2024/03/18 09:59:29;;;;;;;19.47;8.70;;;17.30;99.90;;;;;;7282378;19;20205;-80
2024/03/18 10:01:54;;;;;;;20.97;9.20;;;17.50;99.90;;;;;;7282651;19;20651;-79
2024/03/18 10:04:21;;;;;;;19.70;8.23;;;18.30;99.90;;;;;;7283093;19;20197;-78
2024/03/18 10:06:47;;;;;;;20.00;8.23;;;19.90;99.90;;;;;;7282639;19;20256;-80
2024/03/18 10:09:19;;;;;;;17.73;7.87;;;20.80;99.90;;;;;;7284888;19;20598;-79
2024/03/18 10:11:47;;;;;;;22.40;8.73;;;19.70;99.90;;;;;;7282169;19;20195;-79
2024/03/18 10:14:13;;;;;;;27.57;8.73;;;18.90;99.90;;;;;;7282807;19;20185;-79
2024/03/18 10:16:38;;;;;;;20.07;8.40;;;18.50;99.90;;;;;;7283639;19;20271;-80
2024/03/18 10:19:08;;;;;;;20.00;7.77;;;18.60;99.90;;;;;;7281043;19;20662;-80
2024/03/18 10:21:37;;;;;;;19.23;6.10;;;18.80;99.90;;;;;;7278312;19;20185;-79
2024/03/18 10:24:02;;;;;;;22.47;7.10;;;19.20;99.90;;;;;;7289996;19;20185;-79
2024/03/18 10:26:31;;;;;;;22.57;7.00;;;20.20;99.90;;;;;;7308434;19;20694;-79
2024/03/18 10:28:57;;;;;;;16.57;6.60;;;20.90;99.90;;;;;;7287753;19;20218;-79
2024/03/18 10:31:23;;;;;;;19.20;7.17;;;21.20;99.90;;;;;;7284423;19;20214;-78
2024/03/18 10:33:50;;;;;;;18.03;6.83;;;20.90;99.90;;;;;;7281699;19;20200;-79
2024/03/18 10:36:26;;;;;;;18.93;7.07;;;20.70;99.90;;;;;;7281528;19;20278;-78
2024/03/18 10:39:15;;;;;;;17.90;6.73;;;20.60;99.90;;;;;;7280647;19;20340;-78
2024/03/18 10:41:44;;;;;;;19.97;7.43;;;20.40;99.90;;;;;;7174923;19;2004595;-78
2024/03/18 10:44:19;;;;;;;18.37;6.83;;;19.90;99.90;;;;;;7282078;19;20192;-79
2024/03/18 10:46:46;;;;;;;18.13;6.43;;;19.40;99.90;;;;;;7280698;19;20196;-79
2024/03/18 10:49:17;;;;;;;19.17;6.77;;;19.50;99.90;;;;;;7279774;19;20222;-78
2024/03/18 10:51:44;;;;;;;17.43;6.27;;;19.60;99.90;;;;;;7279375;19;20206;-78
2024/03/18 10:54:15;;;;;;;16.63;6.43;;;20.40;99.90;;;;;;7282204;19;20189;-79
2024/03/18 10:56:45;;;;;;;20.63;6.67;;;20.60;99.90;;;;;;7282234;19;20195;-79
2024/03/18 10:59:16;;;;;;;19.33;5.90;;;20.00;99.90;;;;;;7278343;19;20189;-78
2024/03/18 11:01:42;;;;;;;20.70;6.83;;;19.60;99.90;;;;;;7280448;19;20200;-78
2024/03/18 11:04:21;;;;;;;18.73;6.70;;;19.30;99.90;;;;;;7282197;19;20193;-78
2024/03/18 11:06:49;;;;;;;18.13;6.40;;;19.10;99.90;;;;;;7281926;19;20193;-78
2024/03/18 11:09:17;;;;;;;17.73;6.00;;;18.90;99.90;;;;;;7280633;19;20200;-79
2024/03/18 11:11:44;;;;;;;19.07;6.83;;;18.80;99.90;;;;;;7280862;19;20201;-78
2024/03/18 11:14:13;;;;;;;18.93;6.37;;;18.80;99.90;;;;;;7283864;19;20197;-78
2024/03/18 11:16:44;;;;;;;14.60;5.90;;;18.80;99.90;;;;;;7289184;19;20197;-78
2024/03/18 11:19:26;;;;;;;18.73;6.27;;;19.30;99.90;;;;;;7286801;19;20265;-78
2024/03/18 11:22:06;;;;;;;18.27;5.87;;;19.70;99.90;;;;;;7287309;19;20281;-78
2024/03/18 11:24:32;;;;;;;16.83;6.33;;;21.90;99.90;;;;;;7285993;19;20197;-78
2024/03/18 11:26:59;;;;;;;16.50;5.83;;;22.40;99.90;;;;;;7305305;19;20205;-79
2024/03/18 11:29:38;;;;;;;18.17;5.57;;;23.50;99.90;;;;;;7289321;19;20189;-78
2024/03/18 11:32:08;;;;;;;17.30;5.60;;;22.70;99.90;;;;;;7266314;19;20190;-78
2024/03/18 11:34:36;;;;;;;20.17;5.13;;;21.60;99.90;;;;;;7287441;19;20229;-79
2024/03/18 11:37:04;;;;;;;13.73;3.10;;;21.40;99.90;;;;;;7309014;19;20894;-79
2024/03/18 11:39:30;;;;;;;9.87;2.80;;;22.20;99.90;;;;;;7285802;19;20633;-79
2024/03/18 11:42:03;;;;;;;11.87;2.90;;;23.40;99.90;;;;;;7288198;19;20217;-79
2024/03/18 11:44:32;;;;;;;11.53;3.60;;;23.50;99.90;;;;;;7288480;19;20212;-79
2024/03/18 11:47:05;;;;;;;16.53;5.10;;;22.80;99.90;;;;;;7287142;19;20194;-79
2024/03/18 11:49:31;;;;;;;14.13;4.80;;;21.50;99.90;;;;;;7289654;19;20204;-79
2024/03/18 11:52:01;;;;;;;13.97;3.67;;;20.80;99.90;;;;;;7290197;19;20181;-78
2024/03/18 11:54:27;;;;;;;12.83;3.93;;;20.40;99.90;;;;;;7286996;19;20644;-79
2024/03/18 11:57:02;;;;;;;11.70;3.80;;;20.50;99.90;;;;;;7287166;19;20568;-79
2024/03/18 11:59:30;;;;;;;15.63;3.90;;;21.00;99.90;;;;;;7288074;19;20598;-81
2024/03/18 12:01:58;;;;;;;12.60;3.50;;;21.40;99.90;;;;;;7286547;19;20653;-80
2024/03/18 12:04:23;;;;;;;10.60;2.60;;;21.40;99.90;;;;;;7286121;19;20835;-80
2024/03/18 12:06:49;;;;;;;10.73;2.57;;;21.80;99.90;;;;;;7286930;19;20198;-80
2024/03/18 12:09:16;;;;;;;14.00;2.87;;;22.00;99.90;;;;;;7287468;19;20664;-80
2024/03/18 12:11:43;;;;;;;11.73;3.00;;;21.80;99.90;;;;;;7285268;19;20182;-80
2024/03/18 12:14:10;;;;;;;8.27;2.27;;;21.60;99.90;;;;;;7286171;19;20191;-80
2024/03/18 12:16:37;;;;;;;9.33;2.47;;;21.60;99.90;;;;;;7287211;19;20183;-79
2024/03/18 12:19:10;;;;;;;15.33;2.93;;;21.10;99.90;;;;;;7290349;19;20696;-79
2024/03/18 12:21:41;;;;;;;10.80;2.90;;;20.90;99.90;;;;;;7286104;19;20181;-80
2024/03/18 12:29:37;;;;;;;13.93;2.83;;;19.20;99.90;;;;;;7183003;19;2006288;-80
2024/03/18 12:32:04;;;;;;;12.10;3.00;;;19.50;99.90;;;;;;7290671;19;20208;-77
2024/03/18 12:34:30;;;;;;;11.33;3.17;;;20.20;99.90;;;;;;7307624;19;20189;-78
2024/03/18 12:36:59;;;;;;;13.17;3.30;;;20.90;99.90;;;;;;7286688;19;20200;-80